createdAt,value
2022-08-19T00:00:55.941Z,19.80
2022-08-19T00:01:55.942Z,19.80
2022-08-19T00:02:55.954Z,19.84
2022-08-19T00:03:55.919Z,19.86
2022-08-19T00:04:55.930Z,19.92
2022-08-19T00:05:55.909Z,19.86
2022-08-19T00:06:55.883Z,19.92
2022-08-19T00:07:55.873Z,19.84
2022-08-19T00:08:55.872Z,19.95
2022-08-19T00:09:56.899Z,19.96
2022-08-19T00:10:55.864Z,19.98
2022-08-19T00:11:55.844Z,19.92
2022-08-19T00:12:55.864Z,20.01
2022-08-19T00:13:56.354Z,19.99
2022-08-19T00:14:55.827Z,19.91
2022-08-19T00:15:55.783Z,20.01
2022-08-19T00:16:55.848Z,19.99
2022-08-19T00:17:55.773Z,19.92
2022-08-19T00:18:55.754Z,19.95
2022-08-19T00:19:55.770Z,19.91
2022-08-19T00:20:55.764Z,19.83
2022-08-19T00:21:55.727Z,19.76
2022-08-19T00:22:55.723Z,19.83
2022-08-19T00:23:55.706Z,19.91
2022-08-19T00:24:55.709Z,19.91
2022-08-19T00:25:55.717Z,19.92
2022-08-19T00:26:55.676Z,19.91
2022-08-19T00:27:55.668Z,19.92
2022-08-19T00:28:55.657Z,20.01
2022-08-19T00:29:55.652Z,19.92
2022-08-19T00:30:55.652Z,19.92
2022-08-19T00:31:55.641Z,19.87
2022-08-19T00:32:55.613Z,19.87
2022-08-19T00:33:55.613Z,19.81
2022-08-19T00:34:55.592Z,19.87
2022-08-19T00:35:56.196Z,19.80
2022-08-19T00:36:55.603Z,19.83
2022-08-19T00:37:55.557Z,19.83
2022-08-19T00:38:55.553Z,19.78
2022-08-19T00:39:55.597Z,19.86
2022-08-19T00:40:55.541Z,19.83
2022-08-19T00:41:55.546Z,19.84
2022-08-19T00:42:55.521Z,19.84
2022-08-19T00:43:55.510Z,19.69
2022-08-19T00:44:55.514Z,19.74
2022-08-19T00:45:55.492Z,19.73
2022-08-19T00:46:58.132Z,19.76
2022-08-19T00:47:55.485Z,19.74
2022-08-19T00:48:55.471Z,19.84
2022-08-19T00:49:55.454Z,19.76
2022-08-19T00:50:55.435Z,19.76
2022-08-19T00:51:55.441Z,19.69
2022-08-19T00:52:55.408Z,19.63
2022-08-19T00:53:55.394Z,19.69
2022-08-19T00:54:55.420Z,19.73
2022-08-19T00:55:55.380Z,19.68
2022-08-19T00:56:55.372Z,19.63
2022-08-19T00:57:55.376Z,19.77
2022-08-19T00:59:56.152Z,19.66
2022-08-19T01:00:02.438Z,19.74
2022-08-19T01:00:56.383Z,19.76
2022-08-19T01:01:55.385Z,19.71
2022-08-19T01:02:55.426Z,19.71
2022-08-19T01:03:58.218Z,19.77
2022-08-19T01:04:55.293Z,19.74
2022-08-19T01:05:55.293Z,19.69
2022-08-19T01:06:55.291Z,19.74
2022-08-19T01:07:55.263Z,19.68
2022-08-19T01:08:55.257Z,19.76
2022-08-19T01:09:55.249Z,19.69
2022-08-19T01:10:55.252Z,19.71
2022-08-19T01:11:55.217Z,19.73
2022-08-19T01:12:55.209Z,19.71
2022-08-19T01:13:55.198Z,19.68
2022-08-19T01:14:55.187Z,19.63
2022-08-19T01:15:55.198Z,19.73
2022-08-19T01:16:55.185Z,19.71
2022-08-19T01:17:55.186Z,19.77
2022-08-19T01:18:55.150Z,19.73
2022-08-19T01:19:55.168Z,19.78
2022-08-19T01:20:55.153Z,19.76
2022-08-19T01:21:55.127Z,19.66
2022-08-19T01:22:55.118Z,19.68
2022-08-19T01:23:55.142Z,19.63
2022-08-19T01:24:55.309Z,19.56
2022-08-19T01:25:55.087Z,19.59
2022-08-19T01:26:55.084Z,19.51
2022-08-19T01:27:55.055Z,19.46
2022-08-19T01:28:58.347Z,19.47
2022-08-19T01:29:56.050Z,19.36
2022-08-19T01:30:55.037Z,19.44
2022-08-19T01:31:55.023Z,19.47
2022-08-19T01:32:55.152Z,19.41
2022-08-19T01:33:55.008Z,19.47
2022-08-19T01:34:54.984Z,19.56
2022-08-19T01:35:54.990Z,19.63
2022-08-19T01:36:54.975Z,19.63
2022-08-19T01:37:54.977Z,19.50
2022-08-19T01:38:54.956Z,19.55
2022-08-19T01:39:55.002Z,19.65
2022-08-19T01:40:54.943Z,19.61
2022-08-19T01:41:54.918Z,19.61
2022-08-19T01:42:55.183Z,19.77
2022-08-19T01:44:03.266Z,19.59
2022-08-19T01:44:54.938Z,19.59
2022-08-19T01:45:54.889Z,19.71
2022-08-19T01:46:54.891Z,19.66
2022-08-19T01:48:01.504Z,19.66
2022-08-19T01:48:54.862Z,19.66
2022-08-19T01:49:54.846Z,19.63
2022-08-19T01:50:54.878Z,19.69
2022-08-19T01:51:54.853Z,19.66
2022-08-19T01:52:54.838Z,19.74
2022-08-19T01:53:54.798Z,19.73
2022-08-19T01:54:54.826Z,19.63
2022-08-19T01:55:54.785Z,19.71
2022-08-19T01:56:54.777Z,19.81
2022-08-19T01:57:54.769Z,19.80
2022-08-19T01:58:54.753Z,19.76
2022-08-19T01:59:54.759Z,19.81
2022-08-19T02:00:54.724Z,19.74
2022-08-19T02:01:54.722Z,19.73
2022-08-19T02:02:54.918Z,19.80
2022-08-19T02:03:54.704Z,19.76
2022-08-19T02:04:54.713Z,19.83
2022-08-19T02:05:54.684Z,19.84
2022-08-19T02:06:54.683Z,19.84
2022-08-19T02:07:54.676Z,19.84
2022-08-19T02:08:57.450Z,19.81
2022-08-19T02:09:54.645Z,19.74
2022-08-19T02:10:54.624Z,19.78
2022-08-19T02:11:54.641Z,19.74
2022-08-19T02:12:54.863Z,19.83
2022-08-19T02:13:54.602Z,19.81
2022-08-19T02:14:54.595Z,19.77
2022-08-19T02:15:54.592Z,19.78
2022-08-19T02:16:54.586Z,19.78
2022-08-19T02:17:54.566Z,19.80
2022-08-19T02:18:54.559Z,19.77
2022-08-19T02:19:54.554Z,19.80
2022-08-19T02:20:54.543Z,19.74
2022-08-19T02:21:54.519Z,19.78
2022-08-19T02:22:54.715Z,19.80
2022-08-19T02:23:54.504Z,19.80
2022-08-19T02:24:54.517Z,19.66
2022-08-19T02:25:54.499Z,19.73
2022-08-19T02:26:54.474Z,19.84
2022-08-19T02:27:54.464Z,19.66
2022-08-19T02:28:54.452Z,19.76
2022-08-19T02:29:54.463Z,19.78
2022-08-19T02:30:54.442Z,19.73
2022-08-19T02:31:54.431Z,19.69
2022-08-19T02:32:54.462Z,19.68
2022-08-19T02:33:56.551Z,19.69
2022-08-19T02:34:54.428Z,19.73
2022-08-19T02:35:54.429Z,19.73
2022-08-19T02:36:54.398Z,19.73
2022-08-19T02:37:54.364Z,19.74
2022-08-19T02:38:55.529Z,19.68
2022-08-19T02:39:54.373Z,19.78
2022-08-19T02:40:54.359Z,19.66
2022-08-19T02:41:54.351Z,19.68
2022-08-19T02:42:54.521Z,19.71
2022-08-19T02:44:30.284Z,19.76
2022-08-19T02:44:55.313Z,19.69
2022-08-19T02:45:54.288Z,19.69
2022-08-19T02:46:54.279Z,19.87
2022-08-19T02:47:55.293Z,19.76
2022-08-19T02:48:54.292Z,19.78
2022-08-19T02:49:54.267Z,19.81
2022-08-19T02:50:54.241Z,19.96
2022-08-19T02:51:54.235Z,19.92
2022-08-19T02:52:54.375Z,19.92
2022-08-19T02:53:54.222Z,19.94
2022-08-19T02:54:54.227Z,19.94
2022-08-19T02:55:54.187Z,19.98
2022-08-19T02:56:54.212Z,19.98
2022-08-19T02:57:54.173Z,20.03
2022-08-19T02:58:54.154Z,19.94
2022-08-19T02:59:54.149Z,19.99
2022-08-19T03:00:54.275Z,19.94
2022-08-19T03:01:54.157Z,20.01
2022-08-19T03:02:54.366Z,19.92
2022-08-19T03:03:54.116Z,20.02
2022-08-19T03:04:54.125Z,19.99
2022-08-19T03:05:56.984Z,19.87
2022-08-19T03:06:54.081Z,19.99
2022-08-19T03:07:54.076Z,19.98
2022-08-19T03:08:54.064Z,19.95
2022-08-19T03:09:54.064Z,19.95
2022-08-19T03:10:54.186Z,20.02
2022-08-19T03:11:54.055Z,19.95
2022-08-19T03:12:54.207Z,20.02
2022-08-19T03:13:54.014Z,20.13
2022-08-19T03:14:54.017Z,20.02
2022-08-19T03:15:54.043Z,20.16
2022-08-19T03:16:54.034Z,20.05
2022-08-19T03:17:53.988Z,20.01
2022-08-19T03:18:53.969Z,20.03
2022-08-19T03:19:54.001Z,20.06
2022-08-19T03:20:53.946Z,19.94
2022-08-19T03:21:53.944Z,19.94
2022-08-19T03:22:54.111Z,19.95
2022-08-19T03:23:53.918Z,19.91
2022-08-19T03:24:53.931Z,19.88
2022-08-19T03:26:03.042Z,19.92
2022-08-19T03:26:54.900Z,19.83
2022-08-19T03:27:53.879Z,19.92
2022-08-19T03:28:58.618Z,19.95
2022-08-19T03:29:54.874Z,19.87
2022-08-19T03:30:53.845Z,19.92
2022-08-19T03:31:53.832Z,19.88
2022-08-19T03:32:57.307Z,19.96
2022-08-19T03:33:53.814Z,19.98
2022-08-19T03:34:53.838Z,19.95
2022-08-19T03:35:53.815Z,19.94
2022-08-19T03:36:53.786Z,20.01
2022-08-19T03:37:53.771Z,19.98
2022-08-19T03:38:56.384Z,19.94
2022-08-19T03:39:54.798Z,19.88
2022-08-19T03:40:53.747Z,19.92
2022-08-19T03:42:33.167Z,19.81
2022-08-19T03:42:54.727Z,19.81
2022-08-19T03:43:53.714Z,19.74
2022-08-19T03:44:53.707Z,19.83
2022-08-19T03:45:53.739Z,19.80
2022-08-19T03:46:53.703Z,19.81
2022-08-19T03:47:53.687Z,19.76
2022-08-19T03:48:53.680Z,19.66
2022-08-19T03:49:53.680Z,19.74
2022-08-19T03:50:53.663Z,19.86
2022-08-19T03:51:53.634Z,19.80
2022-08-19T03:52:53.907Z,19.87
2022-08-19T03:53:53.620Z,19.83
2022-08-19T03:54:54.611Z,19.84
2022-08-19T03:55:53.604Z,19.84
2022-08-19T03:56:53.584Z,19.94
2022-08-19T03:57:58.621Z,19.94
2022-08-19T03:58:55.589Z,19.91
2022-08-19T03:59:53.557Z,19.92
2022-08-19T04:00:53.621Z,19.94
2022-08-19T04:01:53.546Z,20.01
2022-08-19T04:02:58.438Z,19.95
2022-08-19T04:03:54.551Z,19.94
2022-08-19T04:04:53.522Z,19.99
2022-08-19T04:05:53.506Z,19.98
2022-08-19T04:06:53.545Z,19.94
2022-08-19T04:07:53.479Z,20.17
2022-08-19T04:08:53.473Z,20.05
2022-08-19T04:09:53.464Z,20.08
2022-08-19T04:10:53.457Z,20.16
2022-08-19T04:11:53.465Z,20.11
2022-08-19T04:12:53.689Z,20.18
2022-08-19T04:13:53.435Z,20.20
2022-08-19T04:14:53.413Z,20.13
2022-08-19T04:15:53.409Z,20.23
2022-08-19T04:16:53.402Z,20.14
2022-08-19T04:17:53.422Z,20.21
2022-08-19T04:18:53.374Z,20.23
2022-08-19T04:19:53.372Z,20.29
2022-08-19T04:20:53.358Z,20.28
2022-08-19T04:21:53.355Z,20.35
2022-08-19T04:22:53.536Z,20.31
2022-08-19T04:23:53.328Z,20.31
2022-08-19T04:24:53.317Z,20.33
2022-08-19T04:25:53.312Z,20.29
2022-08-19T04:26:53.303Z,20.35
2022-08-19T04:27:53.300Z,20.21
2022-08-19T04:28:53.279Z,20.24
2022-08-19T04:29:53.291Z,20.31
2022-08-19T04:30:53.256Z,20.36
2022-08-19T04:31:53.268Z,20.23
2022-08-19T04:32:53.372Z,20.24
2022-08-19T04:33:53.214Z,20.29
2022-08-19T04:35:01.208Z,20.28
2022-08-19T04:35:53.198Z,20.31
2022-08-19T04:36:53.201Z,20.29
2022-08-19T04:37:53.188Z,20.36
2022-08-19T04:38:53.161Z,20.36
2022-08-19T04:39:53.200Z,20.36
2022-08-19T04:40:54.173Z,20.41
2022-08-19T04:41:53.149Z,20.57
2022-08-19T04:42:53.268Z,20.51
2022-08-19T04:43:53.129Z,20.57
2022-08-19T04:44:53.106Z,20.61
2022-08-19T04:45:53.091Z,20.58
2022-08-19T04:46:53.101Z,20.58
2022-08-19T04:47:58.914Z,20.64
2022-08-19T04:48:54.061Z,20.74
2022-08-19T04:49:53.065Z,20.73
2022-08-19T04:50:53.052Z,20.77
2022-08-19T04:51:53.035Z,20.76
2022-08-19T04:52:53.156Z,20.79
2022-08-19T04:53:53.044Z,20.76
2022-08-19T04:54:53.005Z,20.85
2022-08-19T04:55:52.990Z,20.76
2022-08-19T04:56:52.993Z,20.62
2022-08-19T04:57:52.976Z,20.62
2022-08-19T04:58:52.997Z,20.62
2022-08-19T04:59:52.967Z,20.62
2022-08-19T05:00:53.015Z,20.61
2022-08-19T05:01:52.943Z,20.69
2022-08-19T05:02:53.067Z,20.66
2022-08-19T05:03:52.933Z,20.69
2022-08-19T05:04:52.921Z,20.66
2022-08-19T05:05:52.896Z,20.64
2022-08-19T05:06:52.913Z,20.59
2022-08-19T05:07:52.886Z,20.70
2022-08-19T05:08:52.871Z,20.73
2022-08-19T05:09:58.215Z,20.72
2022-08-19T05:10:52.850Z,20.72
2022-08-19T05:11:52.837Z,20.70
2022-08-19T05:12:53.007Z,20.64
2022-08-19T05:13:52.823Z,20.79
2022-08-19T05:14:52.842Z,20.74
2022-08-19T05:15:52.800Z,20.88
2022-08-19T05:17:06.435Z,20.92
2022-08-19T05:17:54.775Z,20.87
2022-08-19T05:18:52.768Z,20.70
2022-08-19T05:19:52.767Z,20.80
2022-08-19T05:20:52.776Z,20.76
2022-08-19T05:21:52.736Z,20.77
2022-08-19T05:22:52.858Z,20.99
2022-08-19T05:23:52.717Z,20.87
2022-08-19T05:25:11.745Z,20.88
2022-08-19T05:25:54.731Z,21.01
2022-08-19T05:26:52.695Z,20.89
2022-08-19T05:27:52.695Z,20.91
2022-08-19T05:28:54.731Z,20.97
2022-08-19T05:29:53.663Z,20.94
2022-08-19T05:30:52.678Z,20.99
2022-08-19T05:31:52.654Z,21.13
2022-08-19T05:32:54.045Z,21.12
2022-08-19T05:33:52.622Z,21.13
2022-08-19T05:34:52.645Z,21.13
2022-08-19T05:35:52.606Z,21.13
2022-08-19T05:36:52.592Z,21.19
2022-08-19T05:37:54.867Z,21.19
2022-08-19T05:38:52.589Z,21.13
2022-08-19T05:39:52.584Z,21.14
2022-08-19T05:40:52.544Z,21.28
2022-08-19T05:41:52.556Z,21.38
2022-08-19T05:42:54.786Z,21.34
2022-08-19T05:43:52.514Z,21.35
2022-08-19T05:44:52.519Z,21.22
2022-08-19T05:45:52.523Z,21.17
2022-08-19T05:46:52.495Z,21.24
2022-08-19T05:47:52.486Z,21.09
2022-08-19T05:48:52.461Z,21.01
2022-08-19T05:49:52.475Z,20.99
2022-08-19T05:50:52.491Z,20.99
2022-08-19T05:51:52.434Z,21.09
2022-08-19T05:52:52.538Z,21.10
2022-08-19T05:53:52.424Z,21.06
2022-08-19T05:54:52.413Z,21.12
2022-08-19T05:55:52.397Z,20.97
2022-08-19T05:56:52.411Z,21.03
2022-08-19T05:57:52.376Z,20.97
2022-08-19T05:58:52.375Z,21.07
2022-08-19T05:59:57.876Z,21.17
2022-08-19T06:00:52.345Z,21.06
2022-08-19T06:01:52.363Z,21.06
2022-08-19T06:02:52.616Z,21.14
2022-08-19T06:03:52.304Z,21.24
2022-08-19T06:04:52.289Z,21.27
2022-08-19T06:05:53.289Z,21.34
2022-08-19T06:06:52.306Z,21.37
2022-08-19T06:07:52.321Z,21.29
2022-08-19T06:08:52.275Z,21.43
2022-08-19T06:09:59.983Z,21.52
2022-08-19T06:10:53.244Z,21.47
2022-08-19T06:11:55.752Z,21.37
2022-08-19T06:12:53.211Z,21.56
2022-08-19T06:13:52.234Z,21.58
2022-08-19T06:14:56.032Z,21.67
2022-08-19T06:15:53.215Z,21.67
2022-08-19T06:16:52.186Z,21.56
2022-08-19T06:17:52.232Z,21.68
2022-08-19T06:18:52.183Z,21.54
2022-08-19T06:19:52.152Z,21.64
2022-08-19T06:20:55.897Z,21.53
2022-08-19T06:21:52.129Z,21.53
2022-08-19T06:22:52.118Z,21.35
2022-08-19T06:23:52.132Z,21.43
2022-08-19T06:24:52.102Z,21.53
2022-08-19T06:25:52.099Z,21.50
2022-08-19T06:26:52.116Z,21.67
2022-08-19T06:28:13.964Z,21.68
2022-08-19T06:28:54.084Z,21.82
2022-08-19T06:29:52.054Z,21.86
2022-08-19T06:30:52.037Z,21.83
2022-08-19T06:31:52.048Z,21.83
2022-08-19T06:32:52.045Z,21.96
2022-08-19T06:33:52.012Z,22.15
2022-08-19T06:34:51.998Z,22.18
2022-08-19T06:35:51.988Z,22.28
2022-08-19T06:36:51.979Z,22.40
2022-08-19T06:37:52.012Z,22.40
2022-08-19T06:38:51.960Z,22.24
2022-08-19T06:39:52.063Z,22.28
2022-08-19T06:40:51.940Z,22.36
2022-08-19T06:41:55.420Z,22.25
2022-08-19T06:42:54.701Z,22.28
2022-08-19T06:43:54.123Z,22.27
2022-08-19T06:44:53.093Z,22.21
2022-08-19T06:45:51.870Z,22.22
2022-08-19T06:46:53.543Z,22.40
2022-08-19T06:47:51.874Z,22.51
2022-08-19T06:48:51.885Z,22.45
2022-08-19T06:49:51.847Z,22.45
2022-08-19T06:50:51.831Z,22.39
2022-08-19T06:51:51.972Z,22.37
2022-08-19T06:52:51.834Z,22.47
2022-08-19T06:54:55.921Z,22.58
2022-08-19T06:55:51.797Z,22.47
2022-08-19T06:56:51.809Z,22.46
2022-08-19T06:57:52.016Z,22.62
2022-08-19T06:59:23.653Z,22.49
2022-08-19T06:59:51.781Z,22.46
2022-08-19T07:00:51.748Z,22.43
2022-08-19T07:01:51.749Z,22.52
2022-08-19T07:02:56.133Z,22.52
2022-08-19T07:03:52.705Z,22.64
2022-08-19T07:04:52.761Z,22.64
2022-08-19T07:05:51.684Z,22.70
2022-08-19T07:06:55.098Z,22.70
2022-08-19T07:07:51.668Z,22.62
2022-08-19T07:08:51.668Z,22.60
2022-08-19T07:09:58.607Z,22.30
2022-08-19T07:10:52.654Z,22.28
2022-08-19T07:11:51.627Z,22.22
2022-08-19T07:12:51.691Z,22.43
2022-08-19T07:13:51.621Z,22.39
2022-08-19T07:14:51.609Z,22.28
2022-08-19T07:15:51.584Z,22.28
2022-08-19T07:16:51.621Z,22.27
2022-08-19T07:17:52.464Z,22.33
2022-08-19T07:18:51.567Z,22.27
2022-08-19T07:19:51.556Z,22.24
2022-08-19T07:20:51.571Z,22.25
2022-08-19T07:21:51.534Z,22.37
2022-08-19T07:22:51.550Z,22.43
2022-08-19T07:23:51.526Z,22.52
2022-08-19T07:24:51.846Z,22.42
2022-08-19T07:25:53.064Z,22.21
2022-08-19T07:26:51.934Z,22.35
2022-08-19T07:27:54.382Z,22.28
2022-08-19T07:28:52.862Z,22.40
2022-08-19T07:29:56.025Z,22.54
2022-08-19T07:30:51.440Z,22.52
2022-08-19T07:31:51.430Z,22.49
2022-08-19T07:32:51.440Z,22.58
2022-08-19T07:33:51.420Z,22.58
2022-08-19T07:34:51.398Z,22.47
2022-08-19T07:35:51.412Z,22.43
2022-08-19T07:36:51.387Z,22.45
2022-08-19T07:37:51.369Z,22.58
2022-08-19T07:38:51.369Z,22.51
2022-08-19T07:39:51.402Z,22.46
2022-08-19T07:40:51.349Z,22.47
2022-08-19T07:41:51.334Z,22.42
2022-08-19T07:42:51.323Z,22.46
2022-08-19T07:43:51.320Z,22.43
2022-08-19T07:44:51.309Z,22.54
2022-08-19T07:45:51.302Z,22.60
2022-08-19T07:46:53.199Z,22.58
2022-08-19T07:47:51.456Z,22.58
2022-08-19T07:48:51.265Z,22.62
2022-08-19T07:49:51.276Z,22.70
2022-08-19T07:50:51.284Z,22.72
2022-08-19T07:51:51.223Z,22.77
2022-08-19T07:52:51.217Z,22.72
2022-08-19T07:53:51.214Z,22.73
2022-08-19T07:54:51.225Z,22.75
2022-08-19T07:55:51.207Z,22.72
2022-08-19T07:56:51.204Z,22.91
2022-08-19T07:57:51.179Z,22.97
2022-08-19T07:58:51.207Z,23.00
2022-08-19T07:59:51.144Z,22.94
2022-08-19T08:00:51.164Z,22.79
2022-08-19T08:01:51.227Z,22.70
2022-08-19T08:02:51.115Z,22.49
2022-08-19T08:03:51.137Z,22.52
2022-08-19T08:04:51.100Z,22.40
2022-08-19T08:05:51.089Z,22.30
2022-08-19T08:06:51.078Z,22.21
2022-08-19T08:07:51.067Z,22.21
2022-08-19T08:08:51.082Z,22.17
2022-08-19T08:09:51.121Z,22.18
2022-08-19T08:10:54.647Z,22.15
2022-08-19T08:11:52.032Z,22.15
2022-08-19T08:13:09.634Z,22.17
2022-08-19T08:14:00.367Z,22.25
2022-08-19T08:14:52.005Z,22.28
2022-08-19T08:15:52.207Z,22.37
2022-08-19T08:16:50.999Z,22.33
2022-08-19T08:17:51.748Z,22.25
2022-08-19T08:18:53.232Z,22.31
2022-08-19T08:19:50.964Z,22.22
2022-08-19T08:20:50.942Z,22.24
2022-08-19T08:21:50.948Z,22.31
2022-08-19T08:22:50.925Z,22.31
2022-08-19T08:23:54.363Z,22.21
2022-08-19T08:24:51.933Z,22.22
2022-08-19T08:25:50.883Z,22.27
2022-08-19T08:26:52.000Z,22.33
2022-08-19T08:27:51.010Z,22.46
2022-08-19T08:28:50.891Z,22.45
2022-08-19T08:29:50.864Z,22.40
2022-08-19T08:30:50.942Z,22.42
2022-08-19T08:31:59.599Z,22.52
2022-08-19T08:32:51.841Z,22.49
2022-08-19T08:33:50.819Z,22.52
2022-08-19T08:34:52.394Z,22.54
2022-08-19T08:35:51.793Z,22.64
2022-08-19T08:36:50.791Z,22.60
2022-08-19T08:37:51.346Z,22.64
2022-08-19T08:39:50.873Z,22.68
2022-08-19T08:40:50.736Z,22.79
2022-08-19T08:41:51.731Z,22.72
2022-08-19T08:42:50.735Z,22.68
2022-08-19T08:43:50.730Z,22.65
2022-08-19T08:44:50.757Z,22.73
2022-08-19T08:45:53.515Z,22.60
2022-08-19T08:46:52.869Z,22.68
2022-08-19T08:47:50.747Z,22.68
2022-08-19T08:48:52.785Z,22.79
2022-08-19T08:49:51.311Z,22.82
2022-08-19T08:50:50.636Z,22.95
2022-08-19T08:51:59.530Z,22.85
2022-08-19T08:52:51.699Z,22.67
2022-08-19T08:53:51.620Z,22.70
2022-08-19T08:54:55.188Z,22.67
2022-08-19T08:55:50.590Z,22.67
2022-08-19T08:56:51.534Z,22.79
2022-08-19T08:57:50.585Z,22.95
2022-08-19T08:58:54.464Z,22.95
2022-08-19T08:59:51.582Z,22.97
2022-08-19T09:00:50.551Z,23.16
2022-08-19T09:01:50.625Z,23.10
2022-08-19T09:02:51.615Z,23.19
2022-08-19T09:03:50.515Z,23.27
2022-08-19T09:04:50.510Z,23.10
2022-08-19T09:05:50.520Z,23.17
2022-08-19T09:06:50.495Z,23.31
2022-08-19T09:07:50.888Z,23.25
2022-08-19T09:08:50.487Z,23.40
2022-08-19T09:09:50.455Z,23.55
2022-08-19T09:10:55.181Z,23.70
2022-08-19T09:11:51.445Z,23.87
2022-08-19T09:12:50.427Z,24.05
2022-08-19T09:13:50.432Z,24.18
2022-08-19T09:14:51.850Z,24.31
2022-08-19T09:15:50.423Z,24.25
2022-08-19T09:16:50.392Z,24.37
2022-08-19T09:17:50.426Z,24.40
2022-08-19T09:18:50.367Z,24.58
2022-08-19T09:19:50.359Z,24.64
2022-08-19T09:20:50.378Z,24.78
2022-08-19T09:21:50.338Z,24.96
2022-08-19T09:22:50.333Z,25.18
2022-08-19T09:23:51.016Z,25.39
2022-08-19T09:24:50.308Z,25.70
2022-08-19T09:25:50.299Z,25.90
2022-08-19T09:26:52.629Z,26.21
2022-08-19T09:27:50.295Z,26.37
2022-08-19T09:28:50.271Z,26.18
2022-08-19T09:29:50.271Z,26.29
2022-08-19T09:30:50.272Z,26.65
2022-08-19T09:31:50.253Z,26.80
2022-08-19T09:32:52.892Z,26.92
2022-08-19T09:33:50.219Z,27.31
2022-08-19T09:34:51.313Z,27.49
2022-08-19T09:35:53.103Z,27.55
2022-08-19T09:36:50.193Z,27.79
2022-08-19T09:37:50.246Z,27.82
2022-08-19T09:38:50.202Z,28.04
2022-08-19T09:39:50.199Z,28.11
2022-08-19T09:40:50.174Z,28.18
2022-08-19T09:41:51.287Z,28.33
2022-08-19T09:42:52.574Z,28.27
2022-08-19T09:43:50.127Z,28.18
2022-08-19T09:44:50.110Z,28.02
2022-08-19T09:45:50.126Z,27.82
2022-08-19T09:46:50.091Z,27.37
2022-08-19T09:47:50.140Z,27.25
2022-08-19T09:48:50.072Z,27.03
2022-08-19T09:49:50.065Z,26.88
2022-08-19T09:50:51.707Z,26.87
2022-08-19T09:51:51.156Z,26.44
2022-08-19T09:52:55.335Z,26.48
2022-08-19T09:53:51.041Z,26.57
2022-08-19T09:54:51.986Z,26.54
2022-08-19T09:55:50.006Z,26.67
2022-08-19T09:56:50.021Z,26.89
2022-08-19T09:57:50.043Z,26.95
2022-08-19T09:58:49.983Z,27.04
2022-08-19T09:59:49.968Z,26.92
2022-08-19T10:00:51.527Z,27.03
2022-08-19T10:01:49.966Z,26.87
2022-08-19T10:02:49.946Z,26.58
2022-08-19T10:03:49.933Z,26.21
2022-08-19T10:04:49.912Z,26.12
2022-08-19T10:05:49.989Z,26.01
2022-08-19T10:06:53.401Z,26.17
2022-08-19T10:07:49.957Z,26.28
2022-08-19T10:08:50.662Z,26.15
2022-08-19T10:09:49.880Z,26.35
2022-08-19T10:10:49.872Z,26.70
2022-08-19T10:11:55.029Z,27.13
2022-08-19T10:12:50.870Z,27.28
2022-08-19T10:13:49.838Z,27.65
2022-08-19T10:14:49.821Z,28.15
2022-08-19T10:15:49.823Z,28.37
2022-08-19T10:16:49.819Z,28.40
2022-08-19T10:17:54.956Z,28.37
2022-08-19T10:18:49.913Z,28.37
2022-08-19T10:19:55.554Z,28.29
2022-08-19T10:20:51.287Z,28.12
2022-08-19T10:21:49.770Z,28.03
2022-08-19T10:22:51.854Z,28.03
2022-08-19T10:23:49.752Z,28.00
2022-08-19T10:24:49.747Z,27.99
2022-08-19T10:25:49.728Z,28.21
2022-08-19T10:26:55.876Z,28.34
2022-08-19T10:27:52.979Z,28.27
2022-08-19T10:28:50.689Z,28.44
2022-08-19T10:29:49.705Z,28.40
2022-08-19T10:30:49.664Z,28.17
2022-08-19T10:32:00.126Z,28.00
2022-08-19T10:32:50.659Z,27.96
2022-08-19T10:33:53.908Z,27.90
2022-08-19T10:34:49.635Z,27.94
2022-08-19T10:35:56.919Z,27.78
2022-08-19T10:36:56.357Z,27.79
2022-08-19T10:37:57.375Z,27.84
2022-08-19T10:38:54.809Z,27.77
2022-08-19T10:39:49.629Z,27.92
2022-08-19T10:40:49.602Z,28.03
2022-08-19T10:41:49.581Z,27.87
2022-08-19T10:42:49.553Z,27.79
2022-08-19T10:43:49.539Z,27.75
2022-08-19T10:44:49.532Z,27.47
2022-08-19T10:45:52.261Z,27.44
2022-08-19T10:46:49.577Z,27.51
2022-08-19T10:47:49.571Z,27.59
2022-08-19T10:48:49.494Z,27.66
2022-08-19T10:49:49.488Z,27.51
2022-08-19T10:50:49.480Z,27.40
2022-08-19T10:51:49.562Z,26.91
2022-08-19T10:52:50.618Z,26.47
2022-08-19T10:53:49.453Z,26.17
2022-08-19T10:54:49.457Z,26.07
2022-08-19T10:55:49.511Z,26.13
2022-08-19T10:56:49.432Z,26.20
2022-08-19T10:58:05.108Z,26.65
2022-08-19T10:58:51.405Z,26.97
2022-08-19T10:59:49.410Z,27.32
2022-08-19T11:00:49.416Z,27.51
2022-08-19T11:01:49.420Z,27.87
2022-08-19T11:02:49.379Z,27.90
2022-08-19T11:03:49.359Z,27.85
2022-08-19T11:04:49.353Z,27.87
2022-08-19T11:05:49.351Z,27.97
2022-08-19T11:06:49.351Z,28.00
2022-08-19T11:07:49.369Z,27.99
2022-08-19T11:08:49.314Z,27.81
2022-08-19T11:09:49.304Z,27.46
2022-08-19T11:10:50.393Z,27.29
2022-08-19T11:11:49.281Z,27.18
2022-08-19T11:12:49.483Z,27.04
2022-08-19T11:13:49.268Z,27.09
2022-08-19T11:14:49.255Z,27.12
2022-08-19T11:15:49.246Z,27.10
2022-08-19T11:16:49.233Z,27.21
2022-08-19T11:17:49.247Z,27.13
2022-08-19T11:18:49.222Z,27.37
2022-08-19T11:19:49.226Z,27.36
2022-08-19T11:20:49.206Z,27.51
2022-08-19T11:21:49.189Z,27.74
2022-08-19T11:22:49.196Z,27.90
2022-08-19T11:23:49.164Z,27.84
2022-08-19T11:24:49.162Z,27.69
2022-08-19T11:25:49.189Z,27.62
2022-08-19T11:26:49.143Z,27.49
2022-08-19T11:27:49.129Z,27.36
2022-08-19T11:28:49.110Z,26.87
2022-08-19T11:29:49.117Z,26.62
2022-08-19T11:30:49.113Z,26.43
2022-08-19T11:31:49.098Z,26.45
2022-08-19T11:32:49.656Z,26.57
2022-08-19T11:33:50.071Z,26.70
2022-08-19T11:34:49.107Z,27.07
2022-08-19T11:35:49.048Z,27.43
2022-08-19T11:36:49.038Z,27.74
2022-08-19T11:37:49.043Z,27.39
2022-08-19T11:38:49.030Z,27.32
2022-08-19T11:39:53.619Z,27.18
2022-08-19T11:40:50.032Z,26.91
2022-08-19T11:41:48.987Z,26.89
2022-08-19T11:42:48.982Z,26.91
2022-08-19T11:43:48.970Z,27.00
2022-08-19T11:44:48.955Z,26.89
2022-08-19T11:45:48.974Z,26.88
2022-08-19T11:46:49.007Z,27.00
2022-08-19T11:47:48.996Z,27.00
2022-08-19T11:48:48.920Z,26.85
2022-08-19T11:49:48.925Z,26.81
2022-08-19T11:50:48.901Z,26.81
2022-08-19T11:51:48.883Z,27.00
2022-08-19T11:52:48.877Z,27.10
2022-08-19T11:53:48.874Z,27.12
2022-08-19T11:54:48.889Z,26.85
2022-08-19T11:55:48.845Z,26.99
2022-08-19T11:56:48.872Z,27.12
2022-08-19T11:57:48.844Z,27.14
2022-08-19T11:58:48.818Z,27.06
2022-08-19T11:59:48.809Z,26.94
2022-08-19T12:00:48.803Z,27.06
2022-08-19T12:01:48.811Z,27.09
2022-08-19T12:02:48.792Z,26.87
2022-08-19T12:03:48.862Z,27.04
2022-08-19T12:04:48.769Z,27.09
2022-08-19T12:05:48.784Z,27.22
2022-08-19T12:06:48.751Z,27.41
2022-08-19T12:07:48.736Z,27.50
2022-08-19T12:08:48.732Z,27.57
2022-08-19T12:09:48.868Z,27.70
2022-08-19T12:10:48.719Z,27.88
2022-08-19T12:11:48.710Z,28.02
2022-08-19T12:12:58.879Z,28.18
2022-08-19T12:13:49.672Z,28.33
2022-08-19T12:14:48.666Z,28.24
2022-08-19T12:15:48.655Z,28.33
2022-08-19T12:16:51.455Z,28.44
2022-08-19T12:17:48.694Z,28.41
2022-08-19T12:18:48.637Z,28.52
2022-08-19T12:19:48.621Z,28.54
2022-08-19T12:20:48.603Z,28.76
2022-08-19T12:21:48.659Z,28.73
2022-08-19T12:22:48.605Z,28.93
2022-08-19T12:23:50.788Z,29.12
2022-08-19T12:24:49.569Z,28.98
2022-08-19T12:25:48.554Z,28.66
2022-08-19T12:26:52.948Z,28.59
2022-08-19T12:27:56.802Z,28.54
2022-08-19T12:28:49.520Z,28.39
2022-08-19T12:29:48.531Z,28.27
2022-08-19T12:30:48.503Z,28.49
2022-08-19T12:31:48.492Z,28.56
2022-08-19T12:32:48.489Z,28.44
2022-08-19T12:33:48.478Z,28.66
2022-08-19T12:34:48.485Z,28.66
2022-08-19T12:35:48.471Z,28.67
2022-08-19T12:36:48.449Z,28.86
2022-08-19T12:37:53.558Z,29.04
2022-08-19T12:38:49.424Z,28.93
2022-08-19T12:39:48.469Z,28.88
2022-08-19T12:40:48.406Z,28.58
2022-08-19T12:41:51.555Z,28.56
2022-08-19T12:42:49.408Z,28.37
2022-08-19T12:43:48.405Z,28.18
2022-08-19T12:44:48.371Z,27.79
2022-08-19T12:45:48.382Z,27.29
2022-08-19T12:46:48.368Z,27.24
2022-08-19T12:47:49.700Z,27.13
2022-08-19T12:48:48.320Z,27.32
2022-08-19T12:49:53.760Z,27.39
2022-08-19T12:50:48.337Z,27.63
2022-08-19T12:51:48.313Z,27.82
2022-08-19T12:52:48.294Z,27.90
2022-08-19T12:53:48.286Z,27.92
2022-08-19T12:54:48.266Z,28.00